Time;durP1;ratioP1;P1;durP2;ratioP2;P2;SDS_P1;SDS_P2;PMS_P1;PMS_P2;Temp;Humidity;BMP_temperature;BMP_pressure;BME280_temperature;BME280_humidity;BME280_pressure;Samples;Min_cycle;Max_cycle;Signal;HPM_P1;HPM_P2
2022/12/02 04:58:54;;;;;;;25.95;17.02;;;;;;;6.07;77.13;101194.59;5606076;31;75999;-54
2022/12/02 05:01:58;;;;;;;25.15;16.17;;;;;;;6.07;77.13;101194.59;5603578;31;34120;-54
2022/12/02 05:05:00;;;;;;;26.23;16.55;;;;;;;5.50;74.08;101184.38;5603791;31;33539;-55
2022/12/02 05:08:03;;;;;;;27.50;16.70;;;;;;;5.51;71.00;101185.19;5603795;31;33681;-54
2022/12/02 05:11:05;;;;;;;24.05;16.15;;;;;;;5.47;83.73;101190.16;5603489;31;33559;-55
2022/12/02 05:14:07;;;;;;;27.10;18.27;;;;;;;5.38;75.57;101192.31;5603655;31;33531;-55
2022/12/02 05:17:09;;;;;;;23.27;15.90;;;;;;;5.29;72.10;101192.84;5603488;31;34203;-55
2022/12/02 05:20:12;;;;;;;23.70;16.67;;;;;;;5.54;76.43;101195.38;5603096;31;33614;-55
2022/12/02 05:23:14;;;;;;;25.50;17.00;;;;;;;5.77;87.75;101203.44;5603493;31;33667;-54
2022/12/02 05:26:17;;;;;;;25.00;16.80;;;;;;;5.80;70.13;101199.50;5603388;31;33560;-55
2022/12/02 05:29:19;;;;;;;24.48;16.77;;;;;;;5.57;81.20;101201.06;5603391;31;34239;-56
2022/12/02 05:32:21;;;;;;;26.37;18.02;;;;;;;5.76;73.80;101195.66;5603182;31;33603;-55
2022/12/02 05:35:23;;;;;;;26.58;17.95;;;;;;;5.55;74.44;101202.31;5603424;31;34210;-55
2022/12/02 05:38:25;;;;;;;24.92;17.25;;;;;;;5.77;77.38;101202.63;5603160;31;34337;-54
2022/12/02 05:41:27;;;;;;;22.70;15.95;;;;;;;5.82;73.68;101197.41;5603465;31;33733;-55
2022/12/02 05:44:32;;;;;;;26.33;16.48;;;;;;;5.73;80.04;101196.09;5601487;31;33580;-55
2022/12/02 05:47:41;;;;;;;24.52;17.55;;;;;;;5.74;73.65;101197.75;5608122;31;33576;-55
2022/12/02 05:50:45;;;;;;;28.17;16.85;;;;;;;5.61;79.73;101196.09;5618833;31;33927;-55
2022/12/02 05:53:49;;;;;;;24.90;16.73;;;;;;;5.50;69.72;101194.22;5592230;31;34170;-55
2022/12/02 05:56:52;;;;;;;24.67;16.80;;;;;;;5.49;68.70;101195.22;5602845;31;33735;-55
2022/12/02 06:00:00;;;;;;;23.70;16.12;;;;;;;5.58;76.76;101200.00;5599016;31;33361;-55
2022/12/02 06:03:18;;;;;;;25.58;17.12;;;;;;;5.33;70.28;101197.50;5596117;31;35167;-55
2022/12/02 06:06:26;;;;;;;32.15;17.02;;;;;;;5.56;85.20;101207.41;5602797;31;33768;-54
2022/12/02 06:09:32;;;;;;;26.55;17.70;;;;;;;5.64;69.79;101214.25;5593253;31;33877;-54
2022/12/02 06:12:34;;;;;;;24.00;17.02;;;;;;;5.89;85.39;101206.09;5572539;31;33376;-54
2022/12/02 06:15:37;;;;;;;31.02;17.85;;;;;;;5.65;70.09;101206.03;5578524;31;33666;-55
2022/12/02 06:18:40;;;;;;;27.83;17.77;;;;;;;5.89;83.04;101212.25;5586817;31;32958;-54
2022/12/02 06:21:42;;;;;;;26.17;16.90;;;;;;;5.59;72.92;101214.13;5588593;31;34081;-54
2022/12/02 06:24:45;;;;;;;26.77;17.90;;;;;;;5.51;72.88;101215.25;5589097;31;33628;-55
2022/12/02 06:27:47;;;;;;;24.63;16.75;;;;;;;5.28;67.66;101215.16;5586112;31;33736;-56
2022/12/02 06:30:57;;;;;;;29.50;17.40;;;;;;;5.46;72.94;101223.09;5584308;31;33611;-54
2022/12/02 06:34:19;;;;;;;26.27;17.17;;;;;;;5.50;68.36;101216.31;5584705;31;33138;-55
2022/12/02 06:37:27;;;;;;;24.20;16.95;;;;;;;5.49;75.08;101219.97;5569024;31;33916;-55
2022/12/02 06:40:32;;;;;;;29.10;18.33;;;;;;;5.49;69.48;101225.28;5586300;31;33780;-54
2022/12/02 06:43:35;;;;;;;26.95;18.25;;;;;;;5.33;71.25;101223.25;5587911;31;34361;-55
2022/12/02 06:46:37;;;;;;;31.50;18.75;;;;;;;5.57;75.98;101229.50;5588536;31;33966;-54
2022/12/02 06:49:39;;;;;;;29.67;18.23;;;;;;;5.67;72.53;101228.97;5588925;31;33805;-54
2022/12/02 06:52:45;;;;;;;35.72;19.52;;;;;;;5.54;74.02;101228.09;5587689;31;33476;-55
2022/12/02 06:55:51;;;;;;;30.42;18.17;;;;;;;5.73;70.21;101230.69;5572873;31;33711;-54
2022/12/02 06:59:02;;;;;;;;;;;;;;;5.81;81.40;101238.38;5589110;31;34661;-55
2022/12/02 07:02:22;;;;;;;31.73;18.73;;;;;;;5.87;73.63;101234.81;5577708;31;33892;-55
2022/12/02 07:05:24;;;;;;;34.97;19.15;;;;;;;5.79;67.05;101227.94;5569240;32;33583;-55
2022/12/02 07:08:26;;;;;;;27.17;18.02;;;;;;;5.69;67.31;101232.19;5569290;32;34409;-55
2022/12/02 07:11:49;;;;;;;35.97;18.40;;;;;;;5.78;84.67;101234.31;5569327;32;33833;-55
2022/12/02 07:14:55;;;;;;;27.52;17.73;;;;;;;5.77;67.24;101242.53;5568925;32;33838;-56
2022/12/02 07:18:18;;;;;;;32.45;19.02;;;;;;;5.65;68.75;101235.31;5578013;31;33727;-54
2022/12/02 07:21:20;;;;;;;32.28;19.23;;;;;;;5.60;70.49;101235.19;5568167;32;34060;-55
2022/12/02 07:24:24;;;;;;;27.50;17.85;;;;;;;5.53;67.25;101234.47;5569232;32;34360;-55
2022/12/02 07:27:32;;;;;;;28.23;17.92;;;;;;;5.43;68.21;101239.50;5578727;31;33568;-55
2022/12/02 07:30:40;;;;;;;24.00;16.77;;;;;;;5.48;71.14;101247.63;5570110;31;33671;-55
2022/12/02 07:33:42;;;;;;;31.30;17.50;;;;;;;5.52;66.88;101242.66;5588810;31;34334;-55
2022/12/02 07:36:44;;;;;;;27.25;17.27;;;;;;;5.81;77.74;101247.16;5579286;31;33726;-56
2022/12/02 07:39:47;;;;;;;26.48;16.98;;;;;;;5.67;66.45;101244.94;5568635;32;34297;-54
2022/12/02 07:42:49;;;;;;;26.23;17.12;;;;;;;5.79;67.47;101243.09;5574118;31;33748;-55
2022/12/02 07:45:51;;;;;;;28.42;17.60;;;;;;;5.86;69.14;101255.28;5583183;31;33631;-55
2022/12/02 07:48:53;;;;;;;26.45;17.75;;;;;;;5.94;70.17;101248.03;5577273;31;33717;-55
2022/12/02 07:51:58;;;;;;;26.85;17.67;;;;;;;5.70;67.96;101247.94;5572010;31;33963;-55
2022/12/02 07:55:02;;;;;;;33.47;18.35;;;;;;;5.96;88.46;101256.59;5584292;31;34305;-55
2022/12/02 07:58:04;;;;;;;28.55;18.60;;;;;;;6.27;78.71;101255.50;5587474;31;33704;-54
2022/12/02 08:01:06;;;;;;;28.90;18.23;;;;;;;6.18;71.49;101254.22;5587713;31;33805;-54
2022/12/02 08:04:09;;;;;;;26.05;18.35;;;;;;;6.38;81.22;101252.03;5588765;31;33609;-55
2022/12/02 08:07:11;;;;;;;30.67;17.77;;;;;;;6.62;85.40;101263.50;5587901;31;34304;-54
2022/12/02 08:10:13;;;;;;;27.90;18.85;;;;;;;6.38;72.70;101246.69;5588082;31;34399;-55
2022/12/02 08:13:15;;;;;;;33.80;18.77;;;;;;;6.27;71.50;101250.19;5587172;31;33738;-54
2022/12/02 08:16:17;;;;;;;28.87;19.05;;;;;;;6.28;75.79;101251.78;5585854;31;33605;-55
2022/12/02 08:19:20;;;;;;;25.77;17.95;;;;;;;6.26;78.72;101252.03;5585684;31;33210;-55
2022/12/02 08:22:22;;;;;;;28.67;19.10;;;;;;;6.33;79.41;101254.59;5583043;31;33447;-55
2022/12/02 08:25:24;;;;;;;30.25;18.65;;;;;;;6.41;74.13;101261.41;5584797;31;33734;-55
2022/12/02 08:28:27;;;;;;;27.42;17.45;;;;;;;6.75;89.48;101260.59;5576450;31;34284;-54
2022/12/02 08:31:29;;;;;;;25.35;18.00;;;;;;;6.91;72.12;101261.75;5569756;31;33765;-55
2022/12/02 08:34:31;;;;;;;33.95;18.67;;;;;;;6.40;64.09;101260.63;5580298;31;33485;-55
2022/12/02 08:37:33;;;;;;;32.15;18.45;;;;;;;6.42;77.70;101261.16;5579371;31;33743;-55
2022/12/02 08:40:36;;;;;;;29.17;19.23;;;;;;;6.61;82.67;101267.22;5568199;31;34336;-55
2022/12/02 08:43:39;;;;;;;29.30;19.20;;;;;;;6.73;71.07;101259.22;5577411;31;33646;-55
2022/12/02 08:46:41;;;;;;;26.17;18.30;;;;;;;6.56;65.45;101257.25;5577063;31;34490;-55
2022/12/02 08:49:43;;;;;;;28.15;17.80;;;;;;;6.64;79.44;101263.28;5568262;32;33713;-55
2022/12/02 08:52:46;;;;;;;28.90;17.85;;;;;;;6.43;64.24;101265.47;5568100;32;33620;-54
2022/12/02 08:55:48;;;;;;;26.40;17.62;;;;;;;6.66;73.40;101267.34;5567974;32;33809;-55
2022/12/02 08:58:50;;;;;;;30.80;17.75;;;;;;;6.49;64.61;101261.91;5580323;31;34446;-55
2022/12/02 09:01:53;;;;;;;28.55;18.10;;;;;;;6.60;68.28;101265.59;5587722;31;33671;-55
2022/12/02 09:04:55;;;;;;;34.03;19.00;;;;;;;6.64;68.94;101266.75;5586425;31;33661;-54
2022/12/02 09:07:57;;;;;;;26.30;18.58;;;;;;;6.84;72.69;101263.72;5567516;31;33724;-55
2022/12/02 09:11:01;;;;;;;26.70;18.02;;;;;;;6.77;70.28;101263.03;5567842;31;33592;-55
2022/12/02 09:14:03;;;;;;;29.25;18.92;;;;;;;6.72;69.97;101265.56;5577968;31;34106;-55
2022/12/02 09:17:08;;;;;;;28.50;17.77;;;;;;;6.77;75.44;101261.19;5574962;31;33671;-55
2022/12/02 09:20:11;;;;;;;29.42;17.52;;;;;;;6.64;74.63;101264.09;5577348;31;33676;-55
2022/12/02 09:23:13;;;;;;;28.00;18.37;;;;;;;6.68;73.70;101262.56;5580533;31;34364;-54
2022/12/02 09:26:16;;;;;;;25.73;16.95;;;;;;;6.59;63.17;101256.00;5587089;31;33695;-55
2022/12/02 09:29:18;;;;;;;26.08;17.17;;;;;;;6.67;63.75;101255.62;5587087;31;33159;-54
2022/12/02 09:32:20;;;;;;;24.33;16.40;;;;;;;6.81;79.16;101253.53;5584944;31;33734;-55
2022/12/02 09:35:22;;;;;;;25.90;17.15;;;;;;;6.95;69.51;101268.22;5570347;31;33725;-54
2022/12/02 09:38:29;;;;;;;29.45;17.15;;;;;;;7.17;74.53;101267.63;5570667;31;33587;-55
2022/12/02 09:41:32;;;;;;;29.95;17.95;;;;;;;7.26;67.37;101260.87;5572826;31;33608;-55
2022/12/02 09:44:36;;;;;;;25.88;17.10;;;;;;;6.92;63.58;101263.38;5587472;31;33696;-54
2022/12/02 09:47:39;;;;;;;26.20;16.62;;;;;;;7.14;83.58;101268.09;5586503;31;33758;-54
2022/12/02 09:50:41;;;;;;;22.33;16.20;;;;;;;7.27;80.53;101255.28;5570245;31;33758;-55
2022/12/02 09:53:45;;;;;;;25.48;17.02;;;;;;;7.38;72.85;101252.81;5575070;31;33748;-54
2022/12/02 09:56:47;;;;;;;28.00;17.52;;;;;;;7.10;72.92;101254.41;5585294;31;34292;-55
2022/12/02 09:59:51;;;;;;;28.87;17.05;;;;;;;7.22;76.40;101249.88;5586010;31;33574;-55
2022/12/02 10:02:53;;;;;;;25.60;16.58;;;;;;;7.29;68.91;101247.88;5576596;31;34702;-55
2022/12/02 10:05:59;;;;;;;25.83;16.73;;;;;;;6.88;64.82;101254.22;5574778;31;33785;-55
2022/12/02 10:09:02;;;;;;;25.77;17.42;;;;;;;7.27;84.82;101246.47;5586657;31;33734;-54
2022/12/02 10:12:04;;;;;;;27.87;16.95;;;;;;;7.29;77.79;101249.75;5580334;31;34379;-54
2022/12/02 10:15:11;;;;;;;24.73;15.90;;;;;;;7.08;64.51;101251.16;5569443;32;33734;-55
2022/12/02 10:18:21;;;;;;;28.00;17.45;;;;;;;7.18;70.13;101247.91;5572590;31;34385;-55
2022/12/02 10:21:23;;;;;;;27.40;17.73;;;;;;;7.16;72.19;101247.34;5579869;31;33204;-55
2022/12/02 10:24:36;;;;;;;27.98;18.02;;;;;;;6.89;68.39;101255.84;5583441;31;33681;-55
2022/12/02 10:27:38;;;;;;;33.08;18.23;;;;;;;6.97;83.76;101252.81;5586126;31;34475;-55
2022/12/02 10:30:49;;;;;;;27.77;18.20;;;;;;;6.74;73.09;101251.00;5590521;31;33405;-54
2022/12/02 10:34:01;;;;;;;26.05;17.40;;;;;;;6.84;81.57;101258.41;5569974;31;33761;-55
2022/12/02 10:37:23;;;;;;;33.53;19.75;;;;;;;6.88;82.73;101248.88;5577818;31;33388;-54
2022/12/02 10:40:25;;;;;;;29.83;18.75;;;;;;;6.80;68.77;101243.94;5572718;31;33616;-55
2022/12/02 10:43:27;;;;;;;29.98;18.77;;;;;;;6.56;68.42;101248.47;5572325;31;33825;-55
2022/12/02 10:46:31;;;;;;;27.55;18.58;;;;;;;6.70;74.31;101249.03;5573777;31;33245;-54
2022/12/02 10:49:33;;;;;;;30.90;18.12;;;;;;;6.57;72.90;101244.75;5572918;31;34525;-55
2022/12/02 10:53:08;;;;;;;27.48;18.35;;;;;;;6.45;76.32;101249.25;5582969;31;34390;-55
2022/12/02 10:56:17;;;;;;;27.02;19.08;;;;;;;6.56;81.24;101241.28;5588916;31;33894;-54
2022/12/02 10:59:20;;;;;;;29.02;18.75;;;;;;;6.56;81.14;101243.13;5575935;31;33724;-55
2022/12/02 11:02:34;;;;;;;30.65;19.40;;;;;;;6.37;73.92;101238.97;5585876;31;33707;-55
2022/12/02 11:05:39;;;;;;;30.77;20.52;;;;;;;6.35;83.19;101236.50;5588613;31;34347;-54
2022/12/02 11:08:43;;;;;;;30.27;20.98;;;;;;;6.32;78.23;101231.66;5586505;31;33309;-54
2022/12/02 11:11:46;;;;;;;30.10;20.20;;;;;;;6.35;76.53;101236.50;5579682;31;33633;-55
2022/12/02 11:14:53;;;;;;;29.15;19.95;;;;;;;6.39;76.24;101234.19;5575804;31;33656;-55
2022/12/02 11:17:56;;;;;;;27.98;19.15;;;;;;;6.48;81.81;101235.47;5586532;31;33874;-55
2022/12/02 11:21:01;;;;;;;32.55;19.75;;;;;;;6.51;82.56;101235.81;5577815;31;34532;-55
2022/12/02 11:24:21;;;;;;;29.73;20.52;;;;;;;6.85;85.79;101233.34;5587364;31;33828;-55
2022/12/02 11:27:24;;;;;;;29.45;19.10;;;;;;;6.88;75.12;101232.09;5586557;31;34346;-54
2022/12/02 11:30:36;;;;;;;29.70;19.83;;;;;;;6.73;88.97;101232.59;5584303;31;33331;-55
2022/12/02 11:33:47;;;;;;;27.62;19.23;;;;;;;6.56;76.22;101225.28;5586623;31;34441;-55
2022/12/02 11:40:49;;;;;;;30.90;19.92;;;;;;;6.78;75.25;101233.47;5588094;31;33601;-54
2022/12/02 11:44:22;;;;;;;31.10;20.35;;;;;;;6.50;74.73;101226.22;5587922;31;34248;-55
2022/12/02 11:47:28;;;;;;;;;;;;;;;6.48;80.61;101225.62;5562847;31;33386;-54
2022/12/02 11:50:30;;;;;;;31.08;19.80;;;;;;;6.49;76.20;101216.63;5575323;31;34129;-55
2022/12/02 11:53:33;;;;;;;30.12;19.62;;;;;;;6.74;78.82;101226.19;5575621;31;33667;-55
2022/12/02 11:56:39;;;;;;;32.65;21.62;;;;;;;6.96;92.78;101219.22;5571318;31;33859;-54
2022/12/02 11:59:41;;;;;;;;;;;;;;;6.83;79.46;101219.47;5579359;31;33717;-56
2022/12/02 12:02:44;;;;;;;31.67;20.80;;;;;;;6.91;84.58;101221.75;5588638;31;33734;-56
2022/12/02 12:06:05;;;;;;;30.75;20.02;;;;;;;6.54;73.85;101215.91;5572321;31;33664;-55
2022/12/02 12:09:10;;;;;;;30.92;20.60;;;;;;;6.65;85.81;101219.59;5570658;31;34365;-55
2022/12/02 12:12:16;;;;;;;29.73;20.85;;;;;;;6.80;89.18;101215.41;5568254;31;34415;-54
2022/12/02 12:15:18;;;;;;;30.67;20.15;;;;;;;7.05;83.82;101220.47;5587636;31;34443;-54
2022/12/02 12:18:42;;;;;;;32.03;20.95;;;;;;;7.03;81.32;101219.87;5574010;31;33829;-55
2022/12/02 12:21:54;;;;;;;31.58;21.50;;;;;;;6.96;83.24;101219.22;5575967;31;33246;-55
2022/12/02 12:25:43;;;;;;;33.10;22.75;;;;;;;6.83;75.52;101222.94;5571120;31;34424;-55
2022/12/02 12:28:45;;;;;;;69.57;49.40;;;;;;;6.70;74.59;101217.06;5575082;31;33488;-55
2022/12/02 12:31:47;;;;;;;42.00;29.17;;;;;;;6.55;77.86;101214.84;5580888;31;33834;-55
2022/12/02 12:34:49;;;;;;;35.25;21.23;;;;;;;6.31;77.79;101219.38;5571848;31;33613;-55
2022/12/02 12:37:52;;;;;;;31.30;21.05;;;;;;;6.26;78.04;101217.41;5584767;31;33740;-54
2022/12/02 12:40:54;;;;;;;30.52;19.70;;;;;;;6.39;88.03;101219.06;5582108;31;33935;-54
2022/12/02 12:43:57;;;;;;;32.95;21.85;;;;;;;6.59;84.03;101219.50;5576756;31;33593;-55
2022/12/02 12:47:02;;;;;;;32.15;20.90;;;;;;;6.59;86.55;101218.69;5571680;31;33599;-55
2022/12/02 12:50:05;;;;;;;34.00;22.52;;;;;;;6.54;77.84;101215.91;5572285;31;33772;-55
2022/12/02 12:53:07;;;;;;;32.60;20.37;;;;;;;6.64;84.09;101220.66;5568146;31;34250;-55
2022/12/02 12:56:09;;;;;;;34.08;21.52;;;;;;;6.49;82.23;101215.78;5574823;31;33793;-54
2022/12/02 12:59:11;;;;;;;33.72;22.40;;;;;;;6.63;74.67;101211.03;5578933;31;33884;-54
2022/12/02 13:02:14;;;;;;;37.78;22.33;;;;;;;6.52;75.10;101216.16;5572745;31;33753;-54
2022/12/02 13:05:16;;;;;;;31.90;21.37;;;;;;;6.59;75.54;101216.03;5585040;31;33267;-54
2022/12/02 13:08:18;;;;;;;32.25;21.20;;;;;;;6.69;83.67;101218.91;5607423;31;33777;-55
2022/12/02 13:11:21;;;;;;;35.70;22.90;;;;;;;6.95;79.84;101211.44;5601116;31;33871;-55
2022/12/02 13:14:26;;;;;;;35.40;23.05;;;;;;;6.90;76.17;101217.47;5589012;31;34401;-54
2022/12/02 13:17:28;;;;;;;34.28;23.35;;;;;;;7.05;74.36;101201.81;5587452;31;33724;-54
2022/12/02 13:20:32;;;;;;;34.17;22.62;;;;;;;6.78;77.95;101216.69;5579073;31;32156;-54
2022/12/02 13:23:36;;;;;;;32.92;21.90;;;;;;;6.66;80.84;101210.59;5588706;31;33673;-54
2022/12/02 13:26:38;;;;;;;31.23;20.35;;;;;;;7.10;90.32;101214.41;5592549;31;33711;-54
2022/12/02 13:29:40;;;;;;;33.40;21.35;;;;;;;7.13;76.65;101213.16;5605914;31;33721;-55
2022/12/02 13:32:44;;;;;;;32.00;21.35;;;;;;;6.81;80.81;101214.34;5570156;31;34929;-54
2022/12/02 13:35:46;;;;;;;31.92;20.62;;;;;;;6.78;81.11;101219.34;5572817;31;33218;-54
2022/12/02 13:38:48;;;;;;;31.35;20.12;;;;;;;6.59;77.81;101219.50;5577938;31;33685;-55
2022/12/02 13:41:50;;;;;;;31.52;20.70;;;;;;;6.68;82.14;101214.62;5577292;31;33990;-54
2022/12/02 13:44:53;;;;;;;30.67;20.42;;;;;;;6.66;75.20;101227.38;5582482;31;33781;-54
2022/12/02 13:47:55;;;;;;;32.78;20.95;;;;;;;6.77;77.19;101226.53;5589218;31;33697;-55
2022/12/02 13:50:58;;;;;;;29.75;19.10;;;;;;;6.91;74.98;101232.41;5570666;31;35114;-54
2022/12/02 13:54:00;;;;;;;32.80;20.88;;;;;;;6.81;73.98;101227.69;5571927;31;33591;-55
2022/12/02 13:57:02;;;;;;;28.85;19.75;;;;;;;6.77;76.90;101236.41;5570070;31;33661;-56
2022/12/02 14:00:05;;;;;;;30.27;19.17;;;;;;;6.79;76.84;101235.12;5587238;31;34507;-55
2022/12/02 14:03:13;;;;;;;30.98;19.90;;;;;;;6.65;85.66;101227.59;5570350;32;34267;-54
2022/12/02 14:06:16;;;;;;;31.58;20.05;;;;;;;6.96;85.96;101227.22;5570129;32;33723;-56
2022/12/02 14:09:18;;;;;;;31.20;19.87;;;;;;;6.85;75.79;101236.03;5570328;32;33988;-55
2022/12/02 14:12:20;;;;;;;36.28;20.65;;;;;;;6.92;75.37;101236.72;5569892;32;33733;-55
2022/12/02 14:15:23;;;;;;;26.70;18.83;;;;;;;6.75;77.91;101239.28;5570832;31;34322;-55
2022/12/02 14:18:25;;;;;;;28.42;19.92;;;;;;;6.68;85.13;101238.59;5569951;32;33561;-55
2022/12/02 14:21:27;;;;;;;31.60;20.60;;;;;;;6.61;77.48;101234.44;5570026;32;34494;-55
2022/12/02 14:24:30;;;;;;;28.40;19.60;;;;;;;6.45;75.59;101231.41;5574063;31;33607;-55
2022/12/02 14:27:32;;;;;;;34.63;20.62;;;;;;;6.45;78.35;101227.94;5588199;31;33776;-54
2022/12/02 14:30:34;;;;;;;36.10;20.98;;;;;;;6.48;77.71;101241.59;5589145;31;33764;-54
2022/12/02 14:33:36;;;;;;;28.12;19.37;;;;;;;6.60;75.43;101244.28;5589585;31;34456;-55
2022/12/02 14:36:58;;;;;;;36.17;20.33;;;;;;;6.78;92.92;101246.81;5579829;31;33731;-54
2022/12/02 14:40:04;;;;;;;28.38;19.17;;;;;;;6.66;75.15;101242.56;5585266;31;34039;-55
2022/12/02 14:43:06;;;;;;;32.10;19.95;;;;;;;6.67;74.33;101247.63;5589488;31;34353;-55
2022/12/02 14:46:15;;;;;;;33.05;21.15;;;;;;;6.78;77.38;101244.13;5589477;31;33687;-55
2022/12/02 14:49:17;;;;;;;35.95;21.33;;;;;;;6.69;78.10;101242.06;5588415;31;33749;-56
2022/12/02 14:52:39;;;;;;;32.55;21.05;;;;;;;6.65;85.31;101236.38;5587783;31;33578;-54
2022/12/02 14:55:42;;;;;;;31.27;20.42;;;;;;;6.56;79.32;101243.94;5581393;31;34713;-55
2022/12/02 14:58:44;;;;;;;31.60;21.17;;;;;;;6.68;76.61;101237.78;5569114;31;33784;-55
2022/12/02 15:01:46;;;;;;;31.67;20.33;;;;;;;6.57;75.80;101250.06;5569973;31;33679;-55
2022/12/02 15:04:48;;;;;;;32.95;20.60;;;;;;;6.65;80.04;101252.38;5569718;32;33665;-55
2022/12/02 15:07:51;;;;;;;34.83;20.70;;;;;;;6.70;82.45;101254.37;5569335;32;33744;-56
2022/12/02 15:10:53;;;;;;;34.85;21.62;;;;;;;6.34;77.97;101254.34;5576816;31;33662;-55
2022/12/02 15:13:56;;;;;;;34.40;22.10;;;;;;;6.28;93.05;101263.25;5585043;31;34365;-54
2022/12/02 15:16:58;;;;;;;33.05;21.73;;;;;;;6.32;82.52;101268.94;5588932;31;34427;-54
2022/12/02 15:20:01;;;;;;;31.17;21.25;;;;;;;6.33;82.16;101258.06;5588765;31;33790;-54
2022/12/02 15:23:03;;;;;;;32.35;20.75;;;;;;;6.28;77.88;101263.25;5587279;31;34309;-55
2022/12/02 15:26:05;;;;;;;34.22;22.17;;;;;;;6.61;86.67;101263.75;5589267;31;34226;-54
2022/12/02 15:29:08;;;;;;;31.60;21.85;;;;;;;6.68;82.68;101272.41;5580759;31;33695;-54
2022/12/02 15:32:10;;;;;;;34.05;21.52;;;;;;;6.44;80.96;101271.63;5569518;32;34430;-54
2022/12/02 15:35:20;;;;;;;30.48;19.58;;;;;;;6.39;81.07;101284.78;5570214;31;33835;-54
2022/12/02 15:38:22;;;;;;;31.20;19.30;;;;;;;6.32;81.60;101277.75;5569411;32;33802;-55
2022/12/02 15:41:25;;;;;;;33.60;21.80;;;;;;;6.13;78.98;101278.88;5567919;32;33816;-55
2022/12/02 15:44:28;;;;;;;30.67;21.30;;;;;;;6.07;77.29;101285.09;5577501;31;33715;-55
2022/12/02 15:47:30;;;;;;;31.17;19.25;;;;;;;6.13;78.53;101286.84;5589141;31;33675;-55
2022/12/02 15:50:32;;;;;;;29.92;19.67;;;;;;;6.14;81.63;101285.00;5588856;31;33772;-54
2022/12/02 15:53:35;;;;;;;31.58;20.42;;;;;;;6.39;90.10;101284.78;5579981;31;33641;-55
2022/12/02 15:56:37;;;;;;;30.33;19.25;;;;;;;6.28;76.34;101283.75;5587272;31;34321;-55
2022/12/02 15:59:39;;;;;;;29.42;19.83;;;;;;;6.48;83.86;101286.91;5589054;31;34329;-55
2022/12/02 16:02:41;;;;;;;31.60;19.40;;;;;;;6.36;83.03;101280.75;5580759;31;33276;-55
2022/12/02 16:05:44;;;;;;;29.83;19.08;;;;;;;6.87;93.50;101286.44;5569279;32;33669;-55
2022/12/02 16:08:47;;;;;;;31.10;19.05;;;;;;;7.31;87.93;101282.31;5570131;31;33677;-55
2022/12/02 16:11:56;;;;;;;32.03;19.87;;;;;;;7.63;87.81;101285.34;5569205;31;33851;-54
2022/12/02 16:14:59;;;;;;;29.65;19.10;;;;;;;7.38;75.55;101282.16;5570008;31;34320;-55
2022/12/02 16:18:02;;;;;;;28.52;19.15;;;;;;;7.07;92.78;101289.53;5582328;31;33727;-55
2022/12/02 16:21:04;;;;;;;30.90;19.70;;;;;;;7.04;86.44;101298.00;5608220;31;33783;-54
2022/12/02 16:24:06;;;;;;;28.38;19.33;;;;;;;6.90;87.86;101296.62;5587573;31;33625;-55
2022/12/02 16:27:09;;;;;;;29.58;19.48;;;;;;;6.67;82.81;101303.59;5588276;31;33669;-54
2022/12/02 16:30:11;;;;;;;28.20;18.65;;;;;;;6.62;88.02;101303.47;5587429;31;33231;-54
2022/12/02 16:33:13;;;;;;;30.75;18.73;;;;;;;6.53;80.27;101289.69;5582144;31;33677;-55
